首页
METAR-TAF:

METAR-TAF

机场 :

雅库茨克, 俄罗斯

纬度: 62-01N, 经度: 129-43E, 海拔: 103米

当前天气观测

该预报发布于27分钟前的21:00 UTC
静风
温度 -12°C
湿度 92%
气压 1019 hPa
能见度10公里或以上
散云层高于800英尺
多云层高于4000英尺

METAR: UEEE 222100Z 00000MPS 9999 SCT008 BKN040 M12/M13 Q1019 R23L/450157 NOSIG RMK QFE755

时间: 06:27 (21:27 UTC)

预报

该预报发布于1小时和27分钟前的20:00 UTC
预报有效从22日的 21点(UTC)到 24日的 03点(UTC)
风速2节,风向多变
能見度: 3200
多云层高于600英尺
多云层高于1500英尺, 积雨云.
阴天层高于7000英尺
轻雾
短暂存在
从 22日的 21点(UTC)到 23日的 03点(UTC)
能見度: 0300
层高于200英尺
冻雾

TAF: UEEE 222000Z 2221/2403 VRB01MPS 3200 BR BKN006 BKN015CB OVC070 TEMPO 2221/2303 0300 FZFG VV002

超过4000个机场的气象观测和天气预报(METAR&TAF报告)。

可查询的气象台以黄色和红色小点在地图上表示。

将鼠标移到小点上方,可查看气象台名称。

然后点击查看天气观测和预报。

如需切换地图:点击带黑十字的绿色按钮放大地图;点击带横线的绿色按钮缩小地图;或者点击绿色箭头查看邻近地区的地图。


METAR-TAF: